Kailua Kona, HI

4:14 PM HST on September 02, 2014 (GMT -1000)
Kona International At Keahole | Change Station
CLOSE
Current Station
Airport
Location: Keahole Point,
Elevation: 43 ft
Nearby Weather Stations

Elev 43 ft 19.74 °N, 156.05 °W | Updated 21 minutes ago

Partly Cloudy
Partly Cloudy
87 °F
Feels Like 94 °F
N
9
Wind Variable Wind from WSW

Today
High -- | Low -- °F
--% Chance of Precip.
Yesterday
High -- | Low -- °F
Precip. -- in
6:09 AM 6:38 PM
First Quarter, 57% visible
Pressure 29.92 in
Visibility 10.0 miles
Clouds Few 1900 ft
Heat Index 94 °F
Dew Point 73 °F
Humidity 63%
Rainfall 0.00 in
Snow Depth Not available.
UV 4 out of 12
Pollen Not available.
Air Quality Not available.
Flu Activity Not available.
METAR PHKO 030153Z 25008KT 10SM FEW019 31/23 A2992 RMK AO2 SLP132 T03060228 $

More Conditions Fewer Conditions

Pressure 29.92 in
Visibility 10.0 miles
Clouds Few 1900 ft
Heat Index 94 °F
Dew Point 73 °F
Humidity 63%
Rainfall 0.00 in
Snow Depth Not available.
UV 4 out of 12
Pollen Not available.
Air Quality Not available.
Flu Activity Not available.
METAR PHKO 030153Z 25008KT 10SM FEW019 31/23 A2992 RMK AO2 SLP132 T03060228 $

More Conditions Fewer Conditions

10-Day Weather Forecast

Almanac

Astronomy

Sep. 02, 2014 Rise Set
Actual Time 6:09 AM HST 6:38 PM HST
Civil Twilight 5:46 AM HST 7:00 PM HST
Nautical Twilight 5:20 AM HST 7:26 PM HST
Astronomical Twilight 4:54 AM HST 7:52 PM HST
Moon 1:08 PM HST (9/2) No Moon Set
Length of Visible Light 13h 13m
Length of Day
12h 29m
Tomorrow will be 1m 5s shorter.
First Quarter, 57% of the Moon is Illuminated
Today
First Quarter
Sep 8
Full
Sep 15
Last Quarter
Sep 24
New
Oct 1
First Quarter

Today's Extremes

State Highs State Lows

Community

WunderPhotos

Upload Photos

1,749,841 photos uploaded!

Nearby

Snow Depth

Station Depth Elevation
No new snow has been reported.

Earthquake Activity

City Distance Mag. Time & Date
No recent earthquake activity has been reported nearby.
Minimum magnitude displayed is 2.5.

Coastal Water Temperatures

Place Temperature
No Stations Reporting

Nearby Weather Stations